sensor_id;sensor_type;location;lat;lon;timestamp;P1;durP1;ratioP1;P2;durP2;ratioP2
17283;SDS011;8760;52.248;20.952;2023-03-14T00:01:10;8.60;;;4.50;;
17283;SDS011;8760;52.248;20.952;2023-03-14T00:03:39;7.77;;;4.77;;
17283;SDS011;8760;52.248;20.952;2023-03-14T00:06:06;8.93;;;5.03;;
17283;SDS011;8760;52.248;20.952;2023-03-14T00:08:34;6.83;;;4.70;;
17283;SDS011;8760;52.248;20.952;2023-03-14T00:11:06;10.77;;;5.40;;
17283;SDS011;8760;52.248;20.952;2023-03-14T00:13:34;7.77;;;5.00;;
17283;SDS011;8760;52.248;20.952;2023-03-14T00:16:02;7.87;;;4.90;;
17283;SDS011;8760;52.248;20.952;2023-03-14T00:18:30;9.50;;;5.17;;
17283;SDS011;8760;52.248;20.952;2023-03-14T00:20:58;8.77;;;4.90;;
17283;SDS011;8760;52.248;20.952;2023-03-14T00:23:26;9.20;;;5.73;;
17283;SDS011;8760;52.248;20.952;2023-03-14T00:25:56;13.37;;;5.57;;
17283;SDS011;8760;52.248;20.952;2023-03-14T00:28:26;10.67;;;5.77;;
17283;SDS011;8760;52.248;20.952;2023-03-14T00:30:53;8.80;;;5.70;;
17283;SDS011;8760;52.248;20.952;2023-03-14T00:33:20;10.50;;;5.80;;
17283;SDS011;8760;52.248;20.952;2023-03-14T00:35:55;10.07;;;5.87;;
17283;SDS011;8760;52.248;20.952;2023-03-14T00:38:23;10.47;;;5.77;;
17283;SDS011;8760;52.248;20.952;2023-03-14T00:40:50;9.93;;;6.07;;
17283;SDS011;8760;52.248;20.952;2023-03-14T00:43:17;13.10;;;6.20;;
17283;SDS011;8760;52.248;20.952;2023-03-14T00:45:47;10.70;;;6.23;;
17283;SDS011;8760;52.248;20.952;2023-03-14T00:48:14;12.33;;;6.10;;
17283;SDS011;8760;52.248;20.952;2023-03-14T00:50:42;11.47;;;6.13;;
17283;SDS011;8760;52.248;20.952;2023-03-14T00:53:08;12.30;;;5.90;;
17283;SDS011;8760;52.248;20.952;2023-03-14T00:55:36;11.23;;;5.87;;
17283;SDS011;8760;52.248;20.952;2023-03-14T00:58:03;10.73;;;6.10;;
17283;SDS011;8760;52.248;20.952;2023-03-14T01:00:30;12.37;;;5.60;;
17283;SDS011;8760;52.248;20.952;2023-03-14T01:02:59;9.53;;;5.63;;
17283;SDS011;8760;52.248;20.952;2023-03-14T01:05:26;8.70;;;5.33;;
17283;SDS011;8760;52.248;20.952;2023-03-14T01:07:53;11.97;;;5.60;;
17283;SDS011;8760;52.248;20.952;2023-03-14T01:10:20;10.97;;;5.20;;
17283;SDS011;8760;52.248;20.952;2023-03-14T01:12:47;9.47;;;5.47;;
17283;SDS011;8760;52.248;20.952;2023-03-14T01:15:14;8.30;;;5.43;;
17283;SDS011;8760;52.248;20.952;2023-03-14T01:17:41;10.97;;;6.23;;
17283;SDS011;8760;52.248;20.952;2023-03-14T01:20:11;9.50;;;5.77;;
17283;SDS011;8760;52.248;20.952;2023-03-14T01:22:40;9.97;;;5.70;;
17283;SDS011;8760;52.248;20.952;2023-03-14T01:25:08;9.97;;;5.43;;
17283;SDS011;8760;52.248;20.952;2023-03-14T01:27:36;11.63;;;5.90;;
17283;SDS011;8760;52.248;20.952;2023-03-14T01:30:04;7.97;;;4.83;;
17283;SDS011;8760;52.248;20.952;2023-03-14T01:32:33;9.73;;;5.70;;
17283;SDS011;8760;52.248;20.952;2023-03-14T01:34:59;11.20;;;5.67;;
17283;SDS011;8760;52.248;20.952;2023-03-14T01:37:28;11.83;;;5.13;;
17283;SDS011;8760;52.248;20.952;2023-03-14T01:39:55;9.20;;;5.67;;
17283;SDS011;8760;52.248;20.952;2023-03-14T01:42:22;10.10;;;5.83;;
17283;SDS011;8760;52.248;20.952;2023-03-14T01:44:49;10.00;;;4.80;;
17283;SDS011;8760;52.248;20.952;2023-03-14T01:47:18;10.37;;;5.33;;
17283;SDS011;8760;52.248;20.952;2023-03-14T01:49:46;10.00;;;5.63;;
17283;SDS011;8760;52.248;20.952;2023-03-14T01:52:17;10.03;;;5.30;;
17283;SDS011;8760;52.248;20.952;2023-03-14T01:54:49;9.67;;;5.47;;
17283;SDS011;8760;52.248;20.952;2023-03-14T01:57:19;13.10;;;5.17;;
17283;SDS011;8760;52.248;20.952;2023-03-14T01:59:50;8.83;;;5.40;;
17283;SDS011;8760;52.248;20.952;2023-03-14T02:02:20;9.17;;;5.43;;
17283;SDS011;8760;52.248;20.952;2023-03-14T02:04:48;9.90;;;5.67;;
17283;SDS011;8760;52.248;20.952;2023-03-14T02:07:16;6.87;;;4.80;;
17283;SDS011;8760;52.248;20.952;2023-03-14T02:09:45;9.87;;;5.50;;
17283;SDS011;8760;52.248;20.952;2023-03-14T02:12:16;10.63;;;5.90;;
17283;SDS011;8760;52.248;20.952;2023-03-14T02:14:44;9.57;;;5.10;;
17283;SDS011;8760;52.248;20.952;2023-03-14T02:17:13;12.00;;;5.60;;
17283;SDS011;8760;52.248;20.952;2023-03-14T02:19:46;8.67;;;5.40;;
17283;SDS011;8760;52.248;20.952;2023-03-14T02:22:30;10.03;;;5.67;;
17283;SDS011;8760;52.248;20.952;2023-03-14T02:24:59;8.77;;;5.53;;
17283;SDS011;8760;52.248;20.952;2023-03-14T02:27:34;9.60;;;5.10;;
17283;SDS011;8760;52.248;20.952;2023-03-14T02:30:02;11.50;;;5.57;;
17283;SDS011;8760;52.248;20.952;2023-03-14T02:32:33;8.63;;;5.60;;
17283;SDS011;8760;52.248;20.952;2023-03-14T02:35:03;8.80;;;5.20;;
17283;SDS011;8760;52.248;20.952;2023-03-14T02:37:34;9.43;;;5.53;;
17283;SDS011;8760;52.248;20.952;2023-03-14T02:40:10;8.03;;;5.37;;
17283;SDS011;8760;52.248;20.952;2023-03-14T02:42:38;10.13;;;5.10;;
17283;SDS011;8760;52.248;20.952;2023-03-14T02:48:02;9.90;;;5.40;;
17283;SDS011;8760;52.248;20.952;2023-03-14T02:50:32;9.67;;;5.23;;
17283;SDS011;8760;52.248;20.952;2023-03-14T02:53:00;9.87;;;5.03;;
17283;SDS011;8760;52.248;20.952;2023-03-14T02:55:27;7.23;;;4.67;;
17283;SDS011;8760;52.248;20.952;2023-03-14T02:57:55;10.23;;;5.37;;
17283;SDS011;8760;52.248;20.952;2023-03-14T03:00:22;9.17;;;5.43;;
17283;SDS011;8760;52.248;20.952;2023-03-14T03:02:50;7.43;;;5.00;;
17283;SDS011;8760;52.248;20.952;2023-03-14T03:05:17;7.67;;;4.73;;
17283;SDS011;8760;52.248;20.952;2023-03-14T03:07:44;8.40;;;4.90;;
17283;SDS011;8760;52.248;20.952;2023-03-14T03:10:11;10.10;;;5.93;;
17283;SDS011;8760;52.248;20.952;2023-03-14T03:12:38;8.33;;;5.03;;
17283;SDS011;8760;52.248;20.952;2023-03-14T03:15:07;7.87;;;4.60;;
17283;SDS011;8760;52.248;20.952;2023-03-14T03:17:34;6.57;;;4.40;;
17283;SDS011;8760;52.248;20.952;2023-03-14T03:20:02;10.00;;;5.00;;
17283;SDS011;8760;52.248;20.952;2023-03-14T03:22:30;5.57;;;4.27;;
17283;SDS011;8760;52.248;20.952;2023-03-14T03:24:56;8.40;;;4.47;;
17283;SDS011;8760;52.248;20.952;2023-03-14T03:27:23;7.60;;;4.53;;
17283;SDS011;8760;52.248;20.952;2023-03-14T03:29:50;8.47;;;4.60;;
17283;SDS011;8760;52.248;20.952;2023-03-14T03:32:18;7.57;;;4.00;;
17283;SDS011;8760;52.248;20.952;2023-03-14T03:34:45;8.43;;;4.57;;
17283;SDS011;8760;52.248;20.952;2023-03-14T03:37:12;6.60;;;4.10;;
17283;SDS011;8760;52.248;20.952;2023-03-14T03:39:39;7.03;;;4.00;;
17283;SDS011;8760;52.248;20.952;2023-03-14T03:42:06;7.30;;;4.23;;
17283;SDS011;8760;52.248;20.952;2023-03-14T03:44:33;6.07;;;4.10;;
17283;SDS011;8760;52.248;20.952;2023-03-14T03:47:00;7.57;;;3.80;;
17283;SDS011;8760;52.248;20.952;2023-03-14T03:49:29;5.93;;;3.73;;
17283;SDS011;8760;52.248;20.952;2023-03-14T03:51:56;8.33;;;3.97;;
17283;SDS011;8760;52.248;20.952;2023-03-14T03:54:23;7.67;;;4.00;;
17283;SDS011;8760;52.248;20.952;2023-03-14T03:56:50;9.03;;;4.40;;
17283;SDS011;8760;52.248;20.952;2023-03-14T03:59:18;5.97;;;3.77;;
17283;SDS011;8760;52.248;20.952;2023-03-14T04:01:46;8.37;;;4.20;;
17283;SDS011;8760;52.248;20.952;2023-03-14T04:04:13;5.60;;;3.77;;
17283;SDS011;8760;52.248;20.952;2023-03-14T04:06:42;7.20;;;3.47;;
17283;SDS011;8760;52.248;20.952;2023-03-14T04:09:09;6.97;;;4.03;;
17283;SDS011;8760;52.248;20.952;2023-03-14T04:11:36;6.23;;;3.70;;
17283;SDS011;8760;52.248;20.952;2023-03-14T04:14:03;7.80;;;4.47;;
17283;SDS011;8760;52.248;20.952;2023-03-14T04:16:31;5.87;;;3.57;;
17283;SDS011;8760;52.248;20.952;2023-03-14T04:18:58;6.70;;;3.87;;
17283;SDS011;8760;52.248;20.952;2023-03-14T04:21:25;5.37;;;3.83;;
17283;SDS011;8760;52.248;20.952;2023-03-14T04:23:53;8.07;;;4.20;;
17283;SDS011;8760;52.248;20.952;2023-03-14T04:26:20;6.10;;;3.73;;
17283;SDS011;8760;52.248;20.952;2023-03-14T04:28:47;7.50;;;4.20;;
17283;SDS011;8760;52.248;20.952;2023-03-14T04:31:16;5.77;;;3.63;;
17283;SDS011;8760;52.248;20.952;2023-03-14T04:33:44;6.63;;;3.63;;
17283;SDS011;8760;52.248;20.952;2023-03-14T04:36:11;6.23;;;3.30;;
17283;SDS011;8760;52.248;20.952;2023-03-14T04:38:39;6.00;;;3.80;;
17283;SDS011;8760;52.248;20.952;2023-03-14T04:41:09;6.17;;;3.87;;
17283;SDS011;8760;52.248;20.952;2023-03-14T04:43:36;5.93;;;3.93;;
17283;SDS011;8760;52.248;20.952;2023-03-14T04:46:03;7.60;;;3.73;;
17283;SDS011;8760;52.248;20.952;2023-03-14T04:48:31;7.10;;;3.53;;
17283;SDS011;8760;52.248;20.952;2023-03-14T04:50:58;5.90;;;3.67;;
17283;SDS011;8760;52.248;20.952;2023-03-14T04:53:25;8.77;;;4.13;;
17283;SDS011;8760;52.248;20.952;2023-03-14T04:55:52;5.73;;;3.50;;
17283;SDS011;8760;52.248;20.952;2023-03-14T04:58:22;5.90;;;3.37;;
17283;SDS011;8760;52.248;20.952;2023-03-14T05:00:49;6.90;;;3.80;;
17283;SDS011;8760;52.248;20.952;2023-03-14T05:03:18;5.57;;;4.03;;
17283;SDS011;8760;52.248;20.952;2023-03-14T05:05:45;6.87;;;3.53;;
17283;SDS011;8760;52.248;20.952;2023-03-14T05:08:12;5.27;;;3.83;;
17283;SDS011;8760;52.248;20.952;2023-03-14T05:10:39;5.63;;;3.40;;
17283;SDS011;8760;52.248;20.952;2023-03-14T05:13:06;4.97;;;3.33;;
17283;SDS011;8760;52.248;20.952;2023-03-14T05:15:34;5.00;;;3.60;;
17283;SDS011;8760;52.248;20.952;2023-03-14T05:18:01;5.37;;;3.47;;
17283;SDS011;8760;52.248;20.952;2023-03-14T05:20:28;8.47;;;3.70;;
17283;SDS011;8760;52.248;20.952;2023-03-14T05:22:56;6.17;;;3.00;;
17283;SDS011;8760;52.248;20.952;2023-03-14T05:25:23;7.13;;;3.60;;
17283;SDS011;8760;52.248;20.952;2023-03-14T05:27:50;4.83;;;3.33;;
17283;SDS011;8760;52.248;20.952;2023-03-14T05:30:19;8.77;;;4.13;;
17283;SDS011;8760;52.248;20.952;2023-03-14T05:32:48;6.83;;;3.70;;
17283;SDS011;8760;52.248;20.952;2023-03-14T05:35:15;5.80;;;4.07;;
17283;SDS011;8760;52.248;20.952;2023-03-14T05:37:42;8.93;;;3.77;;
17283;SDS011;8760;52.248;20.952;2023-03-14T05:40:09;5.63;;;3.43;;
17283;SDS011;8760;52.248;20.952;2023-03-14T05:42:37;8.83;;;3.53;;
17283;SDS011;8760;52.248;20.952;2023-03-14T05:45:04;6.47;;;3.80;;
17283;SDS011;8760;52.248;20.952;2023-03-14T05:47:32;7.30;;;4.00;;
17283;SDS011;8760;52.248;20.952;2023-03-14T05:50:00;4.67;;;3.60;;
17283;SDS011;8760;52.248;20.952;2023-03-14T05:52:27;7.00;;;4.20;;
17283;SDS011;8760;52.248;20.952;2023-03-14T05:54:54;8.53;;;4.33;;
17283;SDS011;8760;52.248;20.952;2023-03-14T05:57:21;6.13;;;3.80;;
17283;SDS011;8760;52.248;20.952;2023-03-14T05:59:48;7.60;;;4.40;;
17283;SDS011;8760;52.248;20.952;2023-03-14T06:02:15;6.90;;;3.70;;
17283;SDS011;8760;52.248;20.952;2023-03-14T06:04:41;6.93;;;3.57;;
17283;SDS011;8760;52.248;20.952;2023-03-14T06:07:10;7.23;;;3.57;;
17283;SDS011;8760;52.248;20.952;2023-03-14T06:09:37;4.30;;;3.53;;
17283;SDS011;8760;52.248;20.952;2023-03-14T06:12:04;9.43;;;4.00;;
17283;SDS011;8760;52.248;20.952;2023-03-14T06:14:31;6.03;;;3.60;;
17283;SDS011;8760;52.248;20.952;2023-03-14T06:16:58;8.17;;;3.50;;
17283;SDS011;8760;52.248;20.952;2023-03-14T06:19:25;8.40;;;3.87;;
17283;SDS011;8760;52.248;20.952;2023-03-14T06:21:52;5.23;;;3.53;;
17283;SDS011;8760;52.248;20.952;2023-03-14T06:24:20;7.83;;;3.63;;
17283;SDS011;8760;52.248;20.952;2023-03-14T06:26:47;5.53;;;3.43;;
17283;SDS011;8760;52.248;20.952;2023-03-14T06:29:14;8.10;;;3.40;;
17283;SDS011;8760;52.248;20.952;2023-03-14T06:31:41;8.10;;;3.80;;
17283;SDS011;8760;52.248;20.952;2023-03-14T06:34:08;8.27;;;3.87;;
17283;SDS011;8760;52.248;20.952;2023-03-14T06:36:35;5.37;;;3.93;;
17283;SDS011;8760;52.248;20.952;2023-03-14T06:39:02;6.23;;;3.63;;
17283;SDS011;8760;52.248;20.952;2023-03-14T06:41:30;6.47;;;3.93;;
17283;SDS011;8760;52.248;20.952;2023-03-14T06:43:57;7.90;;;4.07;;
17283;SDS011;8760;52.248;20.952;2023-03-14T06:46:24;5.73;;;3.07;;
17283;SDS011;8760;52.248;20.952;2023-03-14T06:48:51;6.70;;;3.83;;
17283;SDS011;8760;52.248;20.952;2023-03-14T06:51:18;5.00;;;3.93;;
17283;SDS011;8760;52.248;20.952;2023-03-14T06:53:45;7.90;;;3.67;;
17283;SDS011;8760;52.248;20.952;2023-03-14T06:56:12;6.50;;;3.63;;
17283;SDS011;8760;52.248;20.952;2023-03-14T06:58:41;5.43;;;3.47;;
17283;SDS011;8760;52.248;20.952;2023-03-14T07:01:12;4.47;;;3.87;;
17283;SDS011;8760;52.248;20.952;2023-03-14T07:03:47;5.43;;;3.90;;
17283;SDS011;8760;52.248;20.952;2023-03-14T07:06:14;4.60;;;3.43;;
17283;SDS011;8760;52.248;20.952;2023-03-14T07:08:41;7.33;;;4.23;;
17283;SDS011;8760;52.248;20.952;2023-03-14T07:11:08;7.57;;;3.63;;
17283;SDS011;8760;52.248;20.952;2023-03-14T07:13:36;8.20;;;3.80;;
17283;SDS011;8760;52.248;20.952;2023-03-14T07:16:05;6.87;;;3.63;;
17283;SDS011;8760;52.248;20.952;2023-03-14T07:18:32;4.23;;;3.67;;
17283;SDS011;8760;52.248;20.952;2023-03-14T07:21:00;5.67;;;3.50;;
17283;SDS011;8760;52.248;20.952;2023-03-14T07:23:27;6.90;;;3.70;;
17283;SDS011;8760;52.248;20.952;2023-03-14T07:25:54;5.60;;;3.80;;
17283;SDS011;8760;52.248;20.952;2023-03-14T07:28:21;10.47;;;3.90;;
17283;SDS011;8760;52.248;20.952;2023-03-14T07:30:49;9.13;;;3.93;;
17283;SDS011;8760;52.248;20.952;2023-03-14T07:33:17;5.33;;;3.57;;
17283;SDS011;8760;52.248;20.952;2023-03-14T07:35:45;9.30;;;3.70;;
17283;SDS011;8760;52.248;20.952;2023-03-14T07:38:13;6.67;;;3.83;;
17283;SDS011;8760;52.248;20.952;2023-03-14T07:40:40;7.43;;;4.00;;
17283;SDS011;8760;52.248;20.952;2023-03-14T07:43:07;6.25;;;3.80;;
17283;SDS011;8760;52.248;20.952;2023-03-14T07:45:34;8.20;;;3.63;;
17283;SDS011;8760;52.248;20.952;2023-03-14T07:48:01;6.68;;;3.80;;
17283;SDS011;8760;52.248;20.952;2023-03-14T07:50:29;9.30;;;4.53;;
17283;SDS011;8760;52.248;20.952;2023-03-14T07:52:56;6.90;;;3.70;;
17283;SDS011;8760;52.248;20.952;2023-03-14T07:55:23;7.88;;;4.35;;
17283;SDS011;8760;52.248;20.952;2023-03-14T07:57:50;6.45;;;4.28;;
17283;SDS011;8760;52.248;20.952;2023-03-14T08:00:17;8.57;;;3.80;;
17283;SDS011;8760;52.248;20.952;2023-03-14T08:02:45;8.98;;;3.92;;
17283;SDS011;8760;52.248;20.952;2023-03-14T08:05:12;5.55;;;4.22;;
17283;SDS011;8760;52.248;20.952;2023-03-14T08:07:40;6.85;;;3.90;;
17283;SDS011;8760;52.248;20.952;2023-03-14T08:10:08;5.75;;;3.97;;
17283;SDS011;8760;52.248;20.952;2023-03-14T08:12:35;4.90;;;3.63;;
17283;SDS011;8760;52.248;20.952;2023-03-14T08:15:02;6.80;;;3.55;;
17283;SDS011;8760;52.248;20.952;2023-03-14T08:17:30;6.30;;;3.90;;
17283;SDS011;8760;52.248;20.952;2023-03-14T08:19:57;6.70;;;3.88;;
17283;SDS011;8760;52.248;20.952;2023-03-14T08:22:24;11.27;;;3.97;;
17283;SDS011;8760;52.248;20.952;2023-03-14T08:24:52;5.93;;;3.60;;
17283;SDS011;8760;52.248;20.952;2023-03-14T08:27:19;6.65;;;3.92;;
17283;SDS011;8760;52.248;20.952;2023-03-14T08:29:46;9.80;;;3.72;;
17283;SDS011;8760;52.248;20.952;2023-03-14T08:32:13;4.28;;;3.13;;
17283;SDS011;8760;52.248;20.952;2023-03-14T08:34:40;4.00;;;3.10;;
17283;SDS011;8760;52.248;20.952;2023-03-14T08:37:07;6.63;;;3.60;;
17283;SDS011;8760;52.248;20.952;2023-03-14T08:39:34;6.13;;;3.30;;
17283;SDS011;8760;52.248;20.952;2023-03-14T08:42:02;4.87;;;3.30;;
17283;SDS011;8760;52.248;20.952;2023-03-14T08:44:29;5.97;;;3.20;;
17283;SDS011;8760;52.248;20.952;2023-03-14T08:46:56;6.03;;;3.17;;
17283;SDS011;8760;52.248;20.952;2023-03-14T08:49:23;5.83;;;3.27;;
17283;SDS011;8760;52.248;20.952;2023-03-14T08:51:50;4.10;;;3.10;;
17283;SDS011;8760;52.248;20.952;2023-03-14T08:54:17;4.80;;;3.23;;
17283;SDS011;8760;52.248;20.952;2023-03-14T08:56:44;4.93;;;3.20;;
17283;SDS011;8760;52.248;20.952;2023-03-14T08:59:13;4.77;;;3.37;;
17283;SDS011;8760;52.248;20.952;2023-03-14T09:01:39;9.17;;;3.43;;
17283;SDS011;8760;52.248;20.952;2023-03-14T09:04:06;5.30;;;3.67;;
17283;SDS011;8760;52.248;20.952;2023-03-14T09:06:34;4.03;;;3.10;;
17283;SDS011;8760;52.248;20.952;2023-03-14T09:09:01;5.77;;;3.37;;
17283;SDS011;8760;52.248;20.952;2023-03-14T09:11:29;5.30;;;3.30;;
17283;SDS011;8760;52.248;20.952;2023-03-14T09:13:56;6.95;;;3.40;;
17283;SDS011;8760;52.248;20.952;2023-03-14T09:16:25;5.97;;;3.40;;
17283;SDS011;8760;52.248;20.952;2023-03-14T09:18:52;4.72;;;3.15;;
17283;SDS011;8760;52.248;20.952;2023-03-14T09:21:19;6.20;;;3.33;;
17283;SDS011;8760;52.248;20.952;2023-03-14T09:23:46;5.13;;;2.97;;
17283;SDS011;8760;52.248;20.952;2023-03-14T09:26:13;5.60;;;3.50;;
17283;SDS011;8760;52.248;20.952;2023-03-14T09:28:40;6.37;;;3.63;;
17283;SDS011;8760;52.248;20.952;2023-03-14T09:31:08;6.10;;;3.03;;
17283;SDS011;8760;52.248;20.952;2023-03-14T09:33:37;5.50;;;2.63;;
17283;SDS011;8760;52.248;20.952;2023-03-14T09:36:05;4.43;;;3.07;;
17283;SDS011;8760;52.248;20.952;2023-03-14T09:38:33;5.60;;;2.63;;
17283;SDS011;8760;52.248;20.952;2023-03-14T09:41:01;4.43;;;3.13;;
17283;SDS011;8760;52.248;20.952;2023-03-14T09:43:30;4.47;;;3.00;;
17283;SDS011;8760;52.248;20.952;2023-03-14T09:45:59;5.65;;;2.85;;
17283;SDS011;8760;52.248;20.952;2023-03-14T09:48:29;7.17;;;3.40;;
17283;SDS011;8760;52.248;20.952;2023-03-14T09:51:01;4.70;;;3.10;;
17283;SDS011;8760;52.248;20.952;2023-03-14T09:53:33;5.50;;;2.90;;
17283;SDS011;8760;52.248;20.952;2023-03-14T09:56:04;5.50;;;3.30;;
17283;SDS011;8760;52.248;20.952;2023-03-14T09:58:35;4.85;;;2.55;;
17283;SDS011;8760;52.248;20.952;2023-03-14T10:01:03;4.07;;;2.70;;
17283;SDS011;8760;52.248;20.952;2023-03-14T10:03:31;5.05;;;2.90;;
17283;SDS011;8760;52.248;20.952;2023-03-14T10:06:00;6.40;;;3.58;;
17283;SDS011;8760;52.248;20.952;2023-03-14T10:08:29;6.80;;;3.05;;
17283;SDS011;8760;52.248;20.952;2023-03-14T10:10:56;4.10;;;2.75;;
17283;SDS011;8760;52.248;20.952;2023-03-14T10:13:25;7.57;;;3.08;;
17283;SDS011;8760;52.248;20.952;2023-03-14T10:15:54;6.55;;;3.38;;
17283;SDS011;8760;52.248;20.952;2023-03-14T10:18:24;5.13;;;2.95;;
17283;SDS011;8760;52.248;20.952;2023-03-14T10:21:03;8.60;;;3.47;;
17283;SDS011;8760;52.248;20.952;2023-03-14T10:23:33;6.50;;;3.45;;
17283;SDS011;8760;52.248;20.952;2023-03-14T10:26:08;6.25;;;3.53;;
17283;SDS011;8760;52.248;20.952;2023-03-14T10:28:41;5.00;;;3.05;;
17283;SDS011;8760;52.248;20.952;2023-03-14T10:31:10;6.18;;;3.00;;
17283;SDS011;8760;52.248;20.952;2023-03-14T10:33:37;5.28;;;2.97;;
17283;SDS011;8760;52.248;20.952;2023-03-14T10:36:14;7.13;;;2.92;;
17283;SDS011;8760;52.248;20.952;2023-03-14T10:38:45;8.18;;;3.58;;
17283;SDS011;8760;52.248;20.952;2023-03-14T10:41:16;5.30;;;3.00;;
17283;SDS011;8760;52.248;20.952;2023-03-14T10:43:45;9.25;;;3.70;;
17283;SDS011;8760;52.248;20.952;2023-03-14T10:46:17;6.57;;;2.95;;
17283;SDS011;8760;52.248;20.952;2023-03-14T10:48:45;5.90;;;2.97;;
17283;SDS011;8760;52.248;20.952;2023-03-14T10:51:19;4.40;;;2.80;;
17283;SDS011;8760;52.248;20.952;2023-03-14T10:53:55;5.28;;;3.00;;
17283;SDS011;8760;52.248;20.952;2023-03-14T10:56:24;7.05;;;2.90;;
17283;SDS011;8760;52.248;20.952;2023-03-14T10:58:54;5.85;;;2.97;;
17283;SDS011;8760;52.248;20.952;2023-03-14T11:01:26;6.38;;;3.33;;
17283;SDS011;8760;52.248;20.952;2023-03-14T11:04:05;4.20;;;2.88;;
17283;SDS011;8760;52.248;20.952;2023-03-14T11:06:43;5.72;;;2.95;;
17283;SDS011;8760;52.248;20.952;2023-03-14T11:09:15;6.78;;;2.92;;
17283;SDS011;8760;52.248;20.952;2023-03-14T11:11:49;7.20;;;3.22;;
17283;SDS011;8760;52.248;20.952;2023-03-14T11:14:18;4.50;;;2.97;;
17283;SDS011;8760;52.248;20.952;2023-03-14T11:16:56;6.65;;;3.00;;
17283;SDS011;8760;52.248;20.952;2023-03-14T11:22:26;6.22;;;2.75;;
17283;SDS011;8760;52.248;20.952;2023-03-14T11:25:04;5.95;;;3.55;;
17283;SDS011;8760;52.248;20.952;2023-03-14T11:27:43;7.90;;;3.63;;
17283;SDS011;8760;52.248;20.952;2023-03-14T11:30:15;5.47;;;3.17;;
17283;SDS011;8760;52.248;20.952;2023-03-14T11:32:45;7.37;;;3.43;;
17283;SDS011;8760;52.248;20.952;2023-03-14T11:35:17;5.65;;;3.25;;
17283;SDS011;8760;52.248;20.952;2023-03-14T11:37:52;5.37;;;3.23;;
17283;SDS011;8760;52.248;20.952;2023-03-14T11:40:24;9.63;;;3.30;;
17283;SDS011;8760;52.248;20.952;2023-03-14T11:43:04;8.27;;;3.27;;
17283;SDS011;8760;52.248;20.952;2023-03-14T11:45:38;7.40;;;3.33;;
17283;SDS011;8760;52.248;20.952;2023-03-14T11:48:11;7.00;;;3.40;;
17283;SDS011;8760;52.248;20.952;2023-03-14T11:50:44;6.83;;;3.20;;
17283;SDS011;8760;52.248;20.952;2023-03-14T11:53:16;7.77;;;3.30;;
17283;SDS011;8760;52.248;20.952;2023-03-14T11:55:45;7.37;;;3.70;;
17283;SDS011;8760;52.248;20.952;2023-03-14T11:58:16;8.03;;;3.60;;
17283;SDS011;8760;52.248;20.952;2023-03-14T12:00:47;5.07;;;3.70;;
17283;SDS011;8760;52.248;20.952;2023-03-14T12:03:19;5.67;;;3.90;;
17283;SDS011;8760;52.248;20.952;2023-03-14T12:06:05;6.97;;;3.63;;
17283;SDS011;8760;52.248;20.952;2023-03-14T12:08:43;4.80;;;3.47;;
17283;SDS011;8760;52.248;20.952;2023-03-14T12:11:15;9.17;;;3.53;;
17283;SDS011;8760;52.248;20.952;2023-03-14T12:13:47;9.33;;;3.80;;
17283;SDS011;8760;52.248;20.952;2023-03-14T12:19:14;7.95;;;3.97;;
17283;SDS011;8760;52.248;20.952;2023-03-14T12:22:06;8.00;;;4.15;;
17283;SDS011;8760;52.248;20.952;2023-03-14T12:24:44;8.93;;;3.45;;
17283;SDS011;8760;52.248;20.952;2023-03-14T12:27:41;10.47;;;4.20;;
17283;SDS011;8760;52.248;20.952;2023-03-14T12:30:15;9.55;;;4.25;;
17283;SDS011;8760;52.248;20.952;2023-03-14T12:35:58;12.07;;;3.80;;
17283;SDS011;8760;52.248;20.952;2023-03-14T12:41:29;9.83;;;4.57;;
17283;SDS011;8760;52.248;20.952;2023-03-14T12:50:07;8.10;;;4.57;;
17283;SDS011;8760;52.248;20.952;2023-03-14T12:52:41;6.63;;;4.53;;
17283;SDS011;8760;52.248;20.952;2023-03-14T12:55:18;9.27;;;4.70;;
17283;SDS011;8760;52.248;20.952;2023-03-14T12:57:52;7.70;;;4.17;;
17283;SDS011;8760;52.248;20.952;2023-03-14T13:00:29;7.00;;;3.97;;
17283;SDS011;8760;52.248;20.952;2023-03-14T13:03:00;10.83;;;4.33;;
17283;SDS011;8760;52.248;20.952;2023-03-14T13:05:40;9.37;;;4.47;;
17283;SDS011;8760;52.248;20.952;2023-03-14T13:08:31;6.70;;;4.33;;
17283;SDS011;8760;52.248;20.952;2023-03-14T13:11:01;8.07;;;4.33;;
17283;SDS011;8760;52.248;20.952;2023-03-14T13:13:33;8.70;;;4.37;;
17283;SDS011;8760;52.248;20.952;2023-03-14T13:16:01;11.00;;;4.50;;
17283;SDS011;8760;52.248;20.952;2023-03-14T13:18:30;6.40;;;4.30;;
17283;SDS011;8760;52.248;20.952;2023-03-14T13:21:02;7.10;;;4.20;;
17283;SDS011;8760;52.248;20.952;2023-03-14T13:23:31;8.03;;;4.77;;
17283;SDS011;8760;52.248;20.952;2023-03-14T13:26:00;10.57;;;4.80;;
17283;SDS011;8760;52.248;20.952;2023-03-14T13:28:29;8.10;;;4.77;;
17283;SDS011;8760;52.248;20.952;2023-03-14T13:30:59;7.43;;;4.57;;
17283;SDS011;8760;52.248;20.952;2023-03-14T13:33:27;6.53;;;4.90;;
17283;SDS011;8760;52.248;20.952;2023-03-14T13:35:55;9.17;;;4.93;;
17283;SDS011;8760;52.248;20.952;2023-03-14T13:38:24;7.53;;;4.90;;
17283;SDS011;8760;52.248;20.952;2023-03-14T13:40:53;8.43;;;5.03;;
17283;SDS011;8760;52.248;20.952;2023-03-14T13:43:25;13.13;;;6.03;;
17283;SDS011;8760;52.248;20.952;2023-03-14T13:45:56;8.70;;;5.63;;
17283;SDS011;8760;52.248;20.952;2023-03-14T13:48:31;8.33;;;4.93;;
17283;SDS011;8760;52.248;20.952;2023-03-14T13:51:00;8.40;;;5.20;;
17283;SDS011;8760;52.248;20.952;2023-03-14T13:53:30;9.27;;;5.20;;
17283;SDS011;8760;52.248;20.952;2023-03-14T13:56:01;8.53;;;5.60;;
17283;SDS011;8760;52.248;20.952;2023-03-14T13:58:29;8.93;;;4.93;;
17283;SDS011;8760;52.248;20.952;2023-03-14T14:01:06;10.90;;;5.20;;
17283;SDS011;8760;52.248;20.952;2023-03-14T14:03:39;8.30;;;5.20;;
17283;SDS011;8760;52.248;20.952;2023-03-14T14:06:10;8.17;;;5.47;;
17283;SDS011;8760;52.248;20.952;2023-03-14T14:08:45;11.30;;;5.43;;
17283;SDS011;8760;52.248;20.952;2023-03-14T14:11:16;9.50;;;5.20;;
17283;SDS011;8760;52.248;20.952;2023-03-14T14:13:47;9.20;;;5.43;;
17283;SDS011;8760;52.248;20.952;2023-03-14T14:16:17;9.20;;;5.87;;
17283;SDS011;8760;52.248;20.952;2023-03-14T14:18:50;9.13;;;5.57;;
17283;SDS011;8760;52.248;20.952;2023-03-14T14:21:18;10.33;;;6.27;;
17283;SDS011;8760;52.248;20.952;2023-03-14T14:23:45;11.90;;;6.90;;
17283;SDS011;8760;52.248;20.952;2023-03-14T14:26:13;11.53;;;6.77;;
17283;SDS011;8760;52.248;20.952;2023-03-14T14:28:42;13.63;;;6.50;;
17283;SDS011;8760;52.248;20.952;2023-03-14T14:31:19;10.77;;;6.20;;
17283;SDS011;8760;52.248;20.952;2023-03-14T14:33:53;8.30;;;5.87;;
17283;SDS011;8760;52.248;20.952;2023-03-14T14:36:22;9.60;;;5.47;;
17283;SDS011;8760;52.248;20.952;2023-03-14T14:38:52;10.73;;;5.37;;
17283;SDS011;8760;52.248;20.952;2023-03-14T14:41:20;9.93;;;5.40;;
17283;SDS011;8760;52.248;20.952;2023-03-14T14:43:47;9.60;;;5.80;;
17283;SDS011;8760;52.248;20.952;2023-03-14T14:46:16;9.97;;;5.03;;
17283;SDS011;8760;52.248;20.952;2023-03-14T14:48:46;7.00;;;4.23;;
17283;SDS011;8760;52.248;20.952;2023-03-14T14:51:22;8.57;;;4.77;;
17283;SDS011;8760;52.248;20.952;2023-03-14T14:53:59;7.53;;;4.90;;
17283;SDS011;8760;52.248;20.952;2023-03-14T14:56:36;11.47;;;4.77;;
17283;SDS011;8760;52.248;20.952;2023-03-14T14:59:05;7.13;;;4.40;;
17283;SDS011;8760;52.248;20.952;2023-03-14T15:01:45;6.10;;;4.30;;
17283;SDS011;8760;52.248;20.952;2023-03-14T15:04:15;10.03;;;5.07;;
17283;SDS011;8760;52.248;20.952;2023-03-14T15:06:42;13.33;;;4.97;;
17283;SDS011;8760;52.248;20.952;2023-03-14T15:09:13;6.63;;;4.70;;
17283;SDS011;8760;52.248;20.952;2023-03-14T15:11:41;8.57;;;5.30;;
17283;SDS011;8760;52.248;20.952;2023-03-14T15:14:08;6.83;;;4.97;;
17283;SDS011;8760;52.248;20.952;2023-03-14T15:16:35;8.47;;;5.20;;
17283;SDS011;8760;52.248;20.952;2023-03-14T15:19:08;10.40;;;5.00;;